Date,TemperatureHighF,TemperatureAvgF,TemperatureLowF,DewpointHighF,DewpointAvgF,DewpointLowF,HumidityHigh,HumidityAvg,HumidityLow,PressureMaxIn,PressureMinIn,WindSpeedMaxMPH,WindSpeedAvgMPH,GustSpeedMaxMPH,PrecipitationSumIn
2013-7-20,91.9,86.3,77.9,73.9,71.9,70.4,82,63,52,29.74,29.68,13,1,13,0.00
2013-7-21,86.6,77.6,71.5,74.2,71.6,69.0,96,83,63,29.78,29.69,6,0,6,0.30
2013-7-22,78.0,73.4,71.2,73.4,71.4,69.4,98,94,81,29.75,29.60,7,0,7,0.79
2013-7-23,88.9,78.5,67.8,75.1,72.2,64.2,97,82,59,29.69,29.57,11,1,11,0.94
2013-7-24,80.8,71.1,63.5,68.8,63.4,60.2,97,78,52,29.78,29.61,8,0,8,0.01
2013-7-25,79.1,70.1,61.0,62.6,59.5,57.5,89,70,48,29.90,29.77,8,0,8,0.00
2013-7-26,83.4,71.4,57.7,64.8,61.0,55.5,93,71,50,29.91,29.81,8,0,8,0.00
2013-7-27,78.8,70.4,66.5,67.2,65.1,62.7,94,84,65,29.81,29.69,9,0,9,0.02
2013-7-28,77.7,66.7,56.6,62.7,53.9,47.7,90,66,40,29.91,29.73,8,1,8,0.00
2013-7-29,81.0,67.9,53.8,61.8,57.2,52.3,97,72,47,30.01,29.91,8,1,9,0.00
2013-7-30,80.5,69.6,60.4,67.6,62.6,58.6,95,80,54,30.05,29.95,7,0,7,0.01
2013-7-31,73.1,68.5,63.4,69.5,66.1,62.2,97,92,84,29.97,29.78,7,0,7,0.17
2013-8-1,85.6,73.7,67.3,69.4,65.7,60.1,98,79,50,29.82,29.76,8,0,9,0.00
2013-8-2,84.3,72.2,59.5,64.6,61.8,58.1,97,72,44,29.87,29.80,7,0,7,0.00
2013-8-3,86.0,75.8,68.7,72.4,67.9,63.9,88,77,61,29.84,29.76,11,1,11,0.00
2013-8-4,72.8,68.2,63.8,69.0,63.6,55.5,96,86,59,29.93,29.83,5,0,5,0.00
2013-8-5,82.0,74.4,71.1,60.9,59.1,56.6,70,59,43,29.82,29.78,2,0,2,0.00
2013-8-6,83.8,75.2,68.2,71.7,65.7,59.5,84,73,61,29.81,29.74,7,0,7,0.00
2013-8-7,83.9,79.0,72.7,77.7,73.8,70.7,97,84,73,29.79,29.69,6,1,9,0.02
2013-8-8,84.7,76.2,71.5,75.7,72.9,70.6,99,90,70,29.80,29.72,10,1,10,1.57
2013-8-9,86.0,76.0,70.4,75.7,72.2,69.2,97,89,68,29.85,29.75,11,1,11,0.65
2013-8-10,80.7,74.7,71.5,74.8,72.2,70.3,98,92,74,29.92,29.84,5,0,5,0.28
2013-8-11,88.5,77.1,70.5,75.3,71.5,69.4,99,85,56,29.93,29.85,7,0,7,0.03
2013-8-12,81.4,73.6,67.5,75.4,70.7,66.3,98,91,80,29.90,29.73,5,0,6,1.51
2013-8-14,73.3,64.6,55.1,56.2,52.4,50.2,87,66,48,29.97,29.85,9,1,9,0.00
2013-8-15,77.0,64.8,53.2,57.7,53.8,50.3,91,69,46,29.98,29.88,7,0,8,0.00
2013-8-16,79.5,69.1,58.9,65.5,59.2,54.9,89,72,57,29.95,29.88,9,0,9,0.00
2013-8-17,70.3,65.6,64.1,62.9,58.8,57.8,84,79,71,29.98,29.93,3,0,3,0.00
2013-8-18,79.1,75.2,70.8,69.3,68.0,66.7,88,79,70,29.97,29.91,5,0,5,0.00
2013-8-19,84.8,73.3,65.9,72.7,67.8,64.6,98,84,59,29.96,29.88,9,0,9,0.12
2013-8-20,86.8,75.7,65.8,72.3,68.3,64.3,97,79,57,29.98,29.89,7,0,7,0.00
2013-8-21,82.8,73.4,67.9,73.9,68.3,62.6,97,85,60,30.00,29.89,11,1,11,0.02
2013-8-22,88.5,77.4,67.8,74.5,69.9,66.3,98,80,52,29.95,29.84,7,0,7,0.00
2013-8-23,86.3,76.5,70.4,71.0,68.2,64.8,94,77,50,29.93,29.83,7,0,7,0.00
2013-8-24,87.0,75.2,64.1,68.4,62.8,56.0,94,68,36,30.07,29.93,5,0,5,0.00
2013-8-25,89.8,74.6,61.4,69.5,63.3,59.1,93,70,40,30.16,30.05,7,0,7,0.00
2013-8-26,89.3,76.3,64.6,71.9,67.6,62.8,96,76,52,30.10,29.92,9,1,9,0.00
2013-8-27,89.8,79.3,70.5,75.3,71.9,68.1,93,79,60,29.94,29.81,8,1,8,0.00
2013-8-28,92.0,80.7,72.2,73.8,71.9,69.3,95,77,48,29.84,29.73,11,1,11,0.00
2013-8-29,88.0,78.3,71.5,74.1,70.4,68.2,95,78,55,29.84,29.76,7,0,7,0.00
2013-8-30,92.3,78.8,66.7,73.6,69.4,65.2,97,76,45,29.81,29.68,8,0,8,0.00
2013-8-31,89.5,74.2,68.3,78.5,70.5,66.0,97,89,59,29.79,29.59,17,1,17,4.40
2013-9-1,86.4,74.4,67.5,73.3,69.1,65.9,97,85,57,29.70,29.61,12,1,12,0.02
2013-9-2,85.9,76.0,69.5,74.6,70.6,68.0,96,84,65,29.73,29.63,7,0,7,0.02
2013-9-3,81.8,71.5,63.5,70.2,61.6,56.2,94,72,51,29.88,29.68,9,1,9,0.00
2013-9-4,82.5,68.2,55.5,63.6,58.9,53.8,96,74,49,29.98,29.88,7,0,7,0.00
2013-9-5,84.0,70.2,58.5,66.6,61.9,57.1,96,77,50,30.02,29.95,6,0,6,0.00
2013-9-6,83.7,71.5,62.4,64.9,60.4,56.2,92,70,40,30.03,29.92,4,0,5,0.00
2013-9-7,87.8,72.5,58.2,69.4,62.8,55.9,94,74,50,29.93,29.80,7,0,7,0.00
2013-9-8,90.3,76.8,67.4,71.0,67.4,64.3,96,75,46,29.83,29.75,6,0,6,0.00
2013-9-9,89.9,77.8,67.4,73.1,69.6,65.8,96,78,53,29.88,29.80,7,0,7,0.00
2013-9-10,92.6,79.8,69.9,74.4,71.3,68.0,95,77,52,29.98,29.87,8,1,8,0.00
2013-9-11,91.0,78.0,70.9,77.4,71.4,69.2,95,82,52,30.00,29.88,9,0,9,0.07
2013-9-12,83.9,73.2,66.5,74.7,68.2,63.6,96,85,63,29.88,29.70,12,1,12,0.41
2013-9-13,70.6,64.0,54.3,66.1,52.8,44.3,90,69,45,29.89,29.73,14,1,14,0.00
2013-9-14,72.6,59.3,49.3,52.1,47.8,44.8,90,68,39,29.99,29.89,8,0,8,0.00
2013-9-15,79.3,63.8,48.6,62.8,55.4,46.8,95,76,52,29.99,29.89,9,1,9,0.00
2013-9-16,71.1,65.6,61.1,63.6,60.5,57.5,94,84,70,30.07,29.90,6,0,6,0.00
2013-9-17,77.9,65.2,54.1,58.8,56.1,51.9,93,74,47,30.11,29.97,5,0,5,0.00
2013-9-18,72.1,67.1,61.2,66.0,62.9,58.0,92,87,78,30.00,29.92,9,0,9,0.00
2013-9-19,82.5,71.4,63.6,71.0,66.8,62.0,96,86,66,29.98,29.83,7,0,7,0.00
2013-9-20,85.9,74.4,65.0,69.1,66.9,63.3,95,79,55,29.85,29.64,11,1,11,0.00
2013-9-21,72.9,65.9,57.2,68.0,59.9,50.7,96,82,51,29.69,29.51,13,1,15,1.39
2013-9-22,57.6,55.6,52.8,51.3,50.4,49.2,88,83,78,29.74,29.69,7,0,7,0.00
2013-9-23,72.5,61.1,49.9,53.1,50.4,47.7,92,70,45,29.92,29.82,6,0,6,0.00
2013-9-24,80.3,64.8,52.2,63.7,56.0,48.9,90,75,50,29.89,29.72,5,0,5,0.00
2013-9-25,78.3,68.5,62.6,64.7,61.0,58.5,89,78,54,29.73,29.66,5,0,5,0.00
2013-9-26,78.5,66.4,54.9,64.3,58.4,53.1,96,77,49,29.89,29.73,6,0,6,0.00
2013-9-27,81.6,66.0,53.5,63.0,55.7,51.5,96,73,37,29.99,29.88,5,0,5,0.00
2013-9-28,82.5,65.5,51.7,63.3,57.1,50.0,95,77,45,30.03,29.90,5,0,5,0.00
2013-9-29,74.7,64.5,57.3,61.1,58.5,55.6,95,82,60,29.92,29.84,9,0,9,0.00
2013-9-30,78.7,67.4,60.7,61.6,59.7,57.4,94,78,49,29.88,29.80,8,0,8,0.00
2013-10-1,82.0,67.9,57.6,64.1,60.8,55.6,94,79,53,29.94,29.85,7,0,7,0.00
2013-10-2,84.5,70.2,59.4,70.5,64.6,57.7,95,84,58,29.97,29.86,6,0,6,0.00
2013-10-3,75.3,68.9,66.7,68.2,66.1,64.7,95,91,73,29.92,29.85,4,0,4,0.19
2013-10-4,84.4,71.9,62.4,69.4,65.5,61.0,96,82,57,29.95,29.86,8,0,8,0.00
2013-10-5,85.0,71.9,66.2,70.3,66.8,64.1,95,85,58,29.90,29.76,10,0,10,0.20
2013-10-6,77.6,65.8,53.0,69.6,63.0,51.4,95,91,71,29.76,29.57,12,1,12,2.22
2013-10-7,66.8,55.0,46.7,52.6,47.9,44.2,96,79,47,29.99,29.68,8,1,8,0.07
2013-10-8,67.5,55.8,45.3,50.8,46.7,43.0,93,73,47,30.09,29.98,10,0,10,0.00
2013-10-9,75.8,59.1,46.0,55.0,48.7,43.8,94,71,42,30.06,29.98,6,0,6,0.00
2013-10-10,74.4,58.9,45.3,52.6,48.3,43.4,95,72,39,30.02,29.91,7,0,7,0.00
2013-10-11,80.2,61.9,47.7,56.8,51.7,46.0,98,73,42,29.94,29.85,7,0,7,0.00
2013-10-12,81.0,64.2,51.0,60.5,55.4,49.0,94,76,42,29.95,29.85,3,0,4,0.00
2013-10-13,77.9,64.3,52.6,64.7,57.8,50.9,96,81,56,30.09,29.95,5,0,8,0.00
2013-10-14,74.3,63.4,55.4,61.4,56.6,51.3,93,79,59,30.12,29.97,6,0,6,0.00
2013-10-15,73.8,65.9,60.0,63.4,60.5,57.6,94,83,66,30.00,29.79,10,0,10,0.00
2013-10-16,66.1,62.2,57.4,62.2,59.8,55.6,95,92,87,29.82,29.75,7,0,7,0.15
2013-10-17,58.4,53.6,46.0,56.3,50.5,44.1,95,89,74,29.86,29.72,11,0,11,0.20
2013-10-18,66.3,51.2,39.2,52.0,44.3,37.7,100,80,47,29.93,29.81,8,0,8,0.00
2013-10-19,52.4,46.7,39.3,50.0,44.3,37.1,94,91,84,29.90,29.70,10,0,10,0.21
2013-10-20,61.7,46.4,34.3,46.0,39.0,33.0,97,79,43,29.96,29.89,6,1,6,0.00
2013-10-21,69.2,51.9,36.5,46.7,40.9,34.7,94,70,34,29.93,29.78,10,1,10,0.00
2013-10-22,57.7,49.1,39.5,49.0,38.0,29.4,93,68,38,29.91,29.69,9,0,9,0.05
2013-10-23,47.2,43.4,39.1,44.6,38.4,33.0,91,83,70,29.93,29.59,14,1,14,0.06
2013-10-24,47.4,40.4,35.7,37.5,33.6,29.8,85,77,59,30.15,29.92,13,1,13,0.01
2013-10-25,49.7,37.6,28.8,31.4,28.8,26.2,91,73,42,30.33,30.15,6,0,6,0.00
2013-10-26,54.2,40.6,27.9,35.7,30.4,25.3,91,70,44,30.19,29.86,15,1,15,0.00
2013-10-27,64.4,47.3,33.9,42.8,38.2,31.8,95,73,41,29.96,29.89,7,0,7,0.00
2013-10-28,61.0,52.7,42.9,54.9,48.6,39.9,92,86,78,30.12,29.94,2,0,2,0.00
2013-10-29,60.7,52.2,43.1,56.5,50.0,41.5,97,92,84,30.18,30.03,5,0,5,0.04
2013-10-30,67.7,61.3,55.9,64.2,59.5,54.1,96,94,87,30.04,29.89,8,0,8,0.75
2013-10-31,69.1,64.3,61.0,63.6,58.9,54.9,93,82,69,29.90,29.31,20,3,20,0.03
2013-11-1,67.7,58.2,51.4,63.4,50.1,45.7,93,76,49,29.62,29.33,26,2,26,0.98
2013-11-2,56.3,47.9,43.7,46.0,42.4,36.6,91,81,58,29.95,29.61,10,0,10,0.02
2013-11-3,54.3,44.5,35.3,42.0,37.5,33.2,94,77,56,30.21,29.94,7,0,7,0.00
2013-11-4,61.2,49.5,39.2,44.0,39.2,34.1,83,69,47,30.26,30.15,12,1,12,0.00
2013-11-5,58.6,51.1,48.7,42.0,40.0,37.0,76,66,48,30.23,30.09,2,0,2,0.00
2013-11-6,69.8,58.2,46.8,59.6,49.7,37.3,94,74,58,30.09,29.84,17,2,17,0.47
2013-11-7,56.4,44.8,37.4,54.4,36.4,27.8,93,74,44,30.12,29.84,9,1,9,0.28
2013-11-8,53.9,41.4,30.3,32.2,29.8,26.4,91,66,38,30.25,30.11,7,0,7,0.00
2013-11-9,61.8,46.4,30.8,35.3,30.5,26.4,88,58,27,30.13,29.97,18,2,18,0.00
2013-11-10,56.8,46.9,34.0,40.3,32.4,25.5,82,59,32,30.19,30.02,12,1,12,0.00
2013-11-11,64.0,47.2,30.5,41.9,29.3,22.9,89,56,21,30.17,29.97,11,1,11,0.00
2013-11-12,51.1,33.6,25.6,43.8,25.1,16.6,92,72,48,30.49,30.00,17,2,17,0.16
2013-11-13,41.3,30.7,21.6,25.5,21.5,19.0,92,70,44,30.54,30.30,6,0,8,0.00
2013-11-14,55.2,38.8,25.6,27.0,21.8,17.2,81,55,24,30.30,30.07,13,1,13,0.00
2013-11-15,56.3,45.1,33.2,45.0,33.2,21.8,91,64,42,30.08,29.97,10,0,10,0.01
2013-11-16,62.2,53.6,42.9,55.5,50.0,41.3,96,88,78,30.01,29.80,16,2,16,0.01
2013-11-17,65.3,61.7,51.6,62.9,56.9,44.4,94,85,60,29.80,29.48,20,4,20,0.78
2013-11-18,57.4,48.4,36.9,44.4,37.3,28.4,89,67,40,30.05,29.68,12,1,12,0.00
2013-11-19,44.2,37.2,30.5,31.6,28.6,25.8,84,71,59,30.17,30.04,10,1,10,0.00
2013-11-20,57.2,41.6,30.3,35.4,29.9,25.5,82,65,37,30.17,30.07,8,0,8,0.00
2013-11-21,62.1,51.0,36.5,51.7,41.7,31.0,82,71,58,30.19,30.05,14,1,14,0.00
2013-11-22,57.5,53.4,43.3,55.8,51.0,37.4,95,92,80,30.17,30.00,15,1,15,0.41
2013-11-24,23.2,22.9,22.4,13.8,13.5,13.1,68,67,66,30.43,30.39,1,0,1,0.00
2013-11-25,39.9,30.9,22.6,31.3,25.9,12.0,93,82,54,30.39,30.06,6,1,6,0.00
2013-11-26,35.7,33.7,31.6,34.2,32.1,29.5,94,94,92,30.08,29.75,9,0,9,0.18
2013-11-27,31.7,28.3,21.1,29.6,24.1,16.2,92,84,73,30.18,29.78,12,1,12,0.06
2013-11-28,36.5,26.0,15.7,25.0,19.4,13.3,91,77,58,30.35,30.18,16,1,16,0.01
2013-11-29,45.2,31.5,19.0,28.1,23.4,16.7,99,73,49,30.49,30.34,5,0,5,0.02
2013-11-30,54.8,39.3,26.9,33.7,27.7,22.4,84,65,43,30.36,30.08,13,1,13,0.00
2013-12-1,49.9,43.1,35.0,35.7,32.0,27.2,74,65,54,30.09,29.83,10,1,10,0.00
2013-12-2,56.4,46.0,36.8,42.7,38.3,33.0,88,75,57,29.83,29.62,9,0,9,0.00
2013-12-3,57.1,50.0,43.1,49.7,45.8,40.9,94,86,75,29.72,29.63,7,0,7,0.00
2013-12-4,67.6,58.4,47.9,58.5,53.6,45.6,95,85,70,29.72,29.59,19,2,19,0.06
2013-12-5,65.0,53.2,35.9,61.5,50.2,33.7,94,90,83,29.96,29.67,12,2,12,1.58
2013-12-6,35.8,32.1,29.2,33.9,30.3,26.9,94,93,91,30.20,29.93,14,1,14,0.89
2013-12-7,29.1,27.7,26.9,27.1,25.3,23.6,92,90,87,30.42,30.20,0,0,0,0.00
2013-12-8,36.6,31.6,25.8,35.0,29.8,23.0,94,93,89,30.25,29.90,3,0,3,0.23
2013-12-9,36.6,32.5,28.1,35.0,29.8,24.5,95,90,84,30.10,29.90,8,1,8,0.02
2013-12-10,33.7,28.1,24.3,25.5,22.3,19.9,92,79,66,30.24,30.03,11,1,11,0.00
2013-12-11,41.8,29.2,18.7,28.1,22.3,16.7,92,77,50,30.36,30.19,13,1,13,0.00
2013-12-12,31.7,23.1,12.6,20.2,11.8,8.2,84,63,39,30.45,30.25,12,1,12,0.00
2013-12-13,44.7,32.9,20.7,30.8,18.9,13.1,78,58,35,30.26,29.99,11,1,11,0.01
2013-12-14,45.1,40.1,36.0,43.8,35.6,25.7,98,85,57,30.00,29.57,17,2,17,0.30
2013-12-15,34.4,30.7,29.0,33.5,27.3,24.9,99,87,83,30.02,29.75,13,2,13,0.00
2013-12-16,43.6,35.7,30.2,35.8,31.1,26.8,90,83,71,30.01,29.89,13,1,13,0.00
2013-12-17,42.9,37.4,30.3,37.0,32.9,26.1,90,84,74,30.09,29.86,9,1,9,0.01
2013-12-18,42.1,32.9,26.1,26.1,21.7,15.5,90,66,35,30.19,29.99,9,1,9,0.00
2013-12-19,59.6,47.7,34.3,38.7,28.3,21.1,59,47,37,30.04,29.88,25,3,25,0.00
2013-12-20,59.8,55.6,50.4,55.5,44.1,29.0,87,68,43,29.89,29.74,14,4,14,0.05
2013-12-21,70.4,63.1,57.0,63.2,58.6,51.4,94,85,77,29.74,29.41,32,5,32,0.90
2013-12-22,59.0,55.7,44.1,57.4,51.5,41.7,95,86,70,29.88,29.46,16,2,16,0.57
2013-12-23,44.0,34.7,27.7,41.8,29.2,22.6,92,80,66,30.25,29.88,11,1,11,0.04
2013-12-24,27.7,21.7,18.4,22.6,12.9,11.4,81,69,55,30.41,30.24,2,0,5,0.00
2013-12-25,40.4,28.4,16.8,23.3,16.8,12.3,83,64,39,30.36,30.11,11,1,11,0.00
2013-12-26,43.2,35.9,27.7,27.6,25.0,22.2,83,65,49,30.26,30.09,6,1,9,0.00
2013-12-27,51.2,35.2,23.1,29.3,22.7,20.1,90,65,31,30.32,30.20,9,0,9,0.00
2013-12-28,49.4,39.8,29.3,35.9,27.3,22.3,84,62,43,30.22,29.90,8,1,8,0.05
2013-12-29,44.6,40.0,32.6,40.9,37.5,29.7,94,91,83,29.91,29.71,11,1,11,0.73
2013-12-30,32.6,30.1,25.4,30.0,25.9,20.5,90,84,76,30.11,29.90,5,1,8,0.00
2013-12-31,38.3,29.1,23.1,24.4,21.1,18.5,84,73,52,30.29,30.09,7,1,7,0.00
2014-1-1,48.4,36.9,27.2,29.4,25.7,21.8,82,65,40,30.18,29.87,14,1,14,0.00
2014-1-2,37.9,29.5,14.4,36.3,25.2,10.1,94,84,65,30.12,29.64,15,2,15,0.27